Time;durP1;ratioP1;P1;durP2;ratioP2;P2;SDS_P1;SDS_P2;PMS_P1;PMS_P2;Temp;Humidity;BMP_temperature;BMP_pressure;BME280_temperature;BME280_humidity;BME280_pressure;Samples;Min_cycle;Max_cycle;Signal;HPM_P1;HPM_P2
2022/04/29 00:01:59;;;;;;;2.78;2.40;;;21.60;99.90;;;;;;5089117;28;20280;-83
2022/04/29 00:04:31;;;;;;;3.13;2.58;;;21.60;99.90;;;;;;5092907;28;20264;-83
2022/04/29 00:07:03;;;;;;;2.80;2.40;;;21.70;99.90;;;;;;5088940;28;20200;-83
2022/04/29 00:09:36;;;;;;;2.65;2.25;;;21.60;99.90;;;;;;5073719;28;20202;-80
2022/04/29 00:12:08;;;;;;;3.08;2.25;;;21.70;99.90;;;;;;5088030;28;20620;-79
2022/04/29 00:14:39;;;;;;;2.67;1.70;;;21.70;99.90;;;;;;5088272;28;20222;-80
2022/04/29 00:17:10;;;;;;;2.65;2.10;;;21.70;99.90;;;;;;5073327;28;20215;-81
2022/04/29 00:19:41;;;;;;;2.17;1.98;;;21.70;99.90;;;;;;5072994;28;20230;-81
2022/04/29 00:22:13;;;;;;;2.15;1.50;;;21.80;99.90;;;;;;5072724;28;20215;-81
2022/04/29 00:24:44;;;;;;;4.38;1.75;;;21.90;99.90;;;;;;5074288;28;20200;-82
2022/04/29 00:27:15;;;;;;;4.60;1.60;;;22.00;99.90;;;;;;5074691;28;20240;-81
2022/04/29 00:29:45;;;;;;;2.90;1.50;;;22.10;99.90;;;;;;5074636;28;20643;-82
2022/04/29 00:32:16;;;;;;;4.38;1.60;;;22.20;99.90;;;;;;5073877;28;20219;-82
2022/04/29 00:34:48;;;;;;;3.67;1.50;;;22.30;99.90;;;;;;5073473;28;20253;-82
2022/04/29 00:37:21;;;;;;;2.63;1.65;;;22.30;99.90;;;;;;5071468;28;20184;-81
2022/04/29 00:39:51;;;;;;;2.20;1.40;;;22.30;99.90;;;;;;5072655;28;20227;-82
2022/04/29 00:42:23;;;;;;;1.50;1.40;;;22.40;99.90;;;;;;5070607;28;20217;-83
2022/04/29 00:44:54;;;;;;;2.15;1.35;;;22.40;99.90;;;;;;5068841;28;20291;-82
2022/04/29 00:47:25;;;;;;;3.80;2.33;;;22.50;99.90;;;;;;5068047;28;20280;-82
2022/04/29 00:49:55;;;;;;;3.92;1.58;;;22.60;99.90;;;;;;5068904;28;20570;-82
2022/04/29 00:52:30;;;;;;;2.45;1.60;;;22.60;99.90;;;;;;5069054;28;20196;-83
2022/04/29 00:55:07;;;;;;;2.22;1.40;;;22.70;99.90;;;;;;5069095;28;20643;-82
2022/04/29 00:57:46;;;;;;;2.08;1.00;;;22.90;99.90;;;;;;5068698;28;20244;-82
2022/04/29 01:00:18;;;;;;;1.73;1.20;;;23.00;99.90;;;;;;5073396;28;20235;-83
2022/04/29 01:02:50;;;;;;;1.88;1.08;;;23.10;99.90;;;;;;5073249;28;20287;-83
2022/04/29 01:05:22;;;;;;;3.15;1.17;;;23.20;99.90;;;;;;5077972;28;20589;-82
2022/04/29 01:07:55;;;;;;;1.10;1.00;;;23.40;99.90;;;;;;5092953;28;20187;-82
2022/04/29 01:10:26;;;;;;;4.72;1.55;;;23.50;99.90;;;;;;5093177;28;20256;-82
2022/04/29 01:12:59;;;;;;;1.38;1.00;;;23.50;99.90;;;;;;5093805;28;20195;-82
2022/04/29 01:15:31;;;;;;;2.33;1.10;;;23.50;99.90;;;;;;5094155;28;20207;-82
2022/04/29 01:18:06;;;;;;;3.65;1.35;;;23.50;99.90;;;;;;5093498;28;20195;-82
2022/04/29 01:20:37;;;;;;;2.75;1.70;;;23.50;99.90;;;;;;5089525;28;20227;-82
2022/04/29 01:23:14;;;;;;;2.83;1.27;;;23.50;99.90;;;;;;5087001;28;20626;-83
2022/04/29 01:25:44;;;;;;;1.88;1.17;;;23.50;99.90;;;;;;5094325;28;20183;-82
2022/04/29 01:28:15;;;;;;;1.70;1.17;;;23.50;99.90;;;;;;5094076;28;20203;-82
2022/04/29 01:30:47;;;;;;;1.10;1.00;;;23.50;99.90;;;;;;5094427;28;20245;-82
2022/04/29 01:33:18;;;;;;;3.88;1.08;;;23.50;99.90;;;;;;5093569;28;20179;-83
2022/04/29 01:35:49;;;;;;;4.75;1.40;;;23.50;99.90;;;;;;5093126;28;20531;-83
2022/04/29 01:38:22;;;;;;;2.83;1.30;;;23.50;99.90;;;;;;5092249;28;20210;-83
2022/04/29 01:40:52;;;;;;;3.08;1.33;;;23.50;99.90;;;;;;5081383;28;20235;-82
2022/04/29 01:43:23;;;;;;;2.30;1.40;;;23.60;99.90;;;;;;5068959;28;20290;-82
2022/04/29 01:45:54;;;;;;;3.08;1.30;;;23.60;99.90;;;;;;5087385;28;20744;-81
2022/04/29 01:48:25;;;;;;;3.70;1.38;;;23.70;99.90;;;;;;5088851;28;20263;-83
2022/04/29 01:50:56;;;;;;;3.00;1.30;;;23.80;99.90;;;;;;5088967;28;20188;-82
2022/04/29 01:53:29;;;;;;;2.03;1.10;;;23.80;99.90;;;;;;5093665;28;20186;-82
2022/04/29 01:56:01;;;;;;;2.30;1.00;;;23.80;99.90;;;;;;5088150;28;20195;-82
2022/04/29 01:58:32;;;;;;;2.63;1.20;;;23.90;99.90;;;;;;5073392;28;20527;-82
2022/04/29 02:01:03;;;;;;;2.65;1.30;;;23.90;99.90;;;;;;5073597;28;20242;-82
2022/04/29 02:03:33;;;;;;;1.80;1.10;;;23.90;99.90;;;;;;5072469;28;20191;-82
2022/04/29 02:06:05;;;;;;;4.22;1.50;;;24.00;99.90;;;;;;5073264;28;20193;-82
2022/04/29 02:08:38;;;;;;;4.22;1.50;;;24.00;99.90;;;;;;5072869;28;20202;-83
2022/04/29 02:11:09;;;;;;;2.90;1.40;;;24.00;99.90;;;;;;5073175;28;20208;-82
2022/04/29 02:13:39;;;;;;;4.43;1.52;;;24.10;99.90;;;;;;5090373;28;20210;-83
2022/04/29 02:16:10;;;;;;;2.78;1.30;;;24.10;99.90;;;;;;5094470;28;20614;-83
2022/04/29 02:18:41;;;;;;;2.47;1.40;;;24.10;99.90;;;;;;5097516;28;20324;-82
2022/04/29 02:21:11;;;;;;;3.92;1.33;;;24.00;99.90;;;;;;5096678;28;20231;-83
2022/04/29 02:23:45;;;;;;;3.47;1.80;;;24.10;99.90;;;;;;5096552;28;20203;-82
2022/04/29 02:26:16;;;;;;;2.25;1.55;;;24.10;99.90;;;;;;5094964;28;20191;-82
2022/04/29 02:28:47;;;;;;;1.90;1.40;;;24.20;99.90;;;;;;5093721;28;20272;-81
2022/04/29 02:31:17;;;;;;;2.22;1.40;;;24.20;99.90;;;;;;5083919;28;20196;-83
2022/04/29 02:33:48;;;;;;;2.10;1.42;;;24.30;99.90;;;;;;5078434;28;20249;-83
2022/04/29 02:36:19;;;;;;;4.25;1.60;;;24.40;99.90;;;;;;5077591;28;20230;-81
2022/04/29 02:38:55;;;;;;;2.60;1.55;;;24.40;99.90;;;;;;5076248;28;20269;-82
2022/04/29 02:41:25;;;;;;;3.35;1.40;;;24.50;99.90;;;;;;5076171;28;20230;-81
2022/04/29 02:43:56;;;;;;;1.75;1.33;;;24.50;99.90;;;;;;5082887;28;20219;-82
2022/04/29 02:46:27;;;;;;;4.63;1.70;;;24.60;99.90;;;;;;5074966;28;20207;-82
2022/04/29 02:48:58;;;;;;;2.55;1.10;;;24.60;99.90;;;;;;5095100;28;20211;-82
2022/04/29 02:51:29;;;;;;;3.53;1.45;;;24.80;99.90;;;;;;5093521;28;20563;-82
2022/04/29 02:54:02;;;;;;;3.50;1.38;;;24.90;99.90;;;;;;5095780;28;20219;-82
2022/04/29 02:56:32;;;;;;;2.55;1.45;;;25.00;99.90;;;;;;5085798;28;20193;-82
2022/04/29 02:59:06;;;;;;;1.88;1.23;;;25.00;99.90;;;;;;5075873;28;20204;-82
2022/04/29 03:01:37;;;;;;;2.42;1.35;;;25.10;99.90;;;;;;5075029;28;20338;-81
2022/04/29 03:04:08;;;;;;;2.88;1.60;;;25.10;99.90;;;;;;5092117;28;20195;-81
2022/04/29 03:06:38;;;;;;;3.97;1.90;;;25.20;99.90;;;;;;5094451;28;20658;-81
2022/04/29 03:09:11;;;;;;;5.80;1.73;;;25.30;99.90;;;;;;5095708;28;20203;-81
2022/04/29 03:11:42;;;;;;;2.85;1.42;;;25.30;99.90;;;;;;5095725;28;20210;-82
2022/04/29 03:14:13;;;;;;;4.15;1.60;;;25.50;99.90;;;;;;5095950;28;20196;-82
2022/04/29 03:16:43;;;;;;;4.25;2.20;;;25.60;99.90;;;;;;5094997;28;20195;-82
2022/04/29 03:19:15;;;;;;;3.15;1.70;;;25.50;99.90;;;;;;5087877;28;20203;-82
2022/04/29 03:21:45;;;;;;;3.95;1.70;;;25.50;99.90;;;;;;5084396;28;20318;-82
2022/04/29 03:24:18;;;;;;;1.90;1.35;;;25.50;99.90;;;;;;5095889;28;20210;-81
2022/04/29 03:26:49;;;;;;;2.90;1.45;;;25.50;99.90;;;;;;5093618;28;20239;-82
2022/04/29 03:29:20;;;;;;;2.55;1.40;;;25.60;99.90;;;;;;5095276;28;20200;-81
2022/04/29 03:31:50;;;;;;;3.13;1.30;;;25.70;99.90;;;;;;5081916;28;20659;-81
2022/04/29 03:34:21;;;;;;;4.43;1.50;;;25.70;99.90;;;;;;5072994;28;20187;-82
2022/04/29 03:36:52;;;;;;;2.38;1.20;;;25.80;99.90;;;;;;5073160;28;20203;-82
2022/04/29 03:39:25;;;;;;;5.18;1.52;;;25.80;99.90;;;;;;5075710;28;20208;-82
2022/04/29 03:41:56;;;;;;;3.47;1.60;;;25.80;99.90;;;;;;5074906;28;20242;-82
2022/04/29 03:44:27;;;;;;;3.75;1.63;;;25.80;99.90;;;;;;5074765;28;20192;-82
2022/04/29 03:46:57;;;;;;;4.95;1.73;;;25.80;99.90;;;;;;5074345;28;20200;-82
2022/04/29 03:49:40;;;;;;;4.10;1.60;;;25.80;99.90;;;;;;5071174;28;20199;-81
2022/04/29 03:52:11;;;;;;;5.05;1.77;;;25.80;99.90;;;;;;5073963;28;20566;-82
2022/04/29 03:54:43;;;;;;;3.33;1.48;;;25.80;99.90;;;;;;5073803;28;20204;-82
2022/04/29 03:57:14;;;;;;;4.72;1.33;;;25.80;99.90;;;;;;5089109;28;20199;-82
2022/04/29 03:59:45;;;;;;;3.50;1.40;;;25.80;99.90;;;;;;5073912;28;20204;-82
2022/04/29 04:02:15;;;;;;;3.58;1.70;;;25.80;99.90;;;;;;5073230;28;20231;-81
2022/04/29 04:04:48;;;;;;;3.28;1.50;;;25.80;99.90;;;;;;5090194;28;20191;-81
2022/04/29 04:07:18;;;;;;;3.35;1.40;;;25.80;99.90;;;;;;5094540;28;20202;-81
2022/04/29 04:09:52;;;;;;;3.83;1.50;;;25.70;99.90;;;;;;5094020;28;20199;-81
2022/04/29 04:12:24;;;;;;;4.40;1.45;;;25.80;99.90;;;;;;5087430;28;20203;-81
2022/04/29 04:14:55;;;;;;;2.58;1.30;;;25.70;99.90;;;;;;5073711;28;20223;-81
2022/04/29 04:17:26;;;;;;;2.95;1.58;;;25.60;99.90;;;;;;5072405;28;20196;-82
2022/04/29 04:19:56;;;;;;;4.82;1.73;;;25.60;99.90;;;;;;5072388;28;20639;-81
2022/04/29 04:22:27;;;;;;;1.95;1.40;;;25.60;99.90;;;;;;5073325;28;20215;-82
2022/04/29 04:25:01;;;;;;;5.63;1.42;;;25.50;99.90;;;;;;5072191;28;20283;-82
2022/04/29 04:27:32;;;;;;;2.28;1.42;;;25.50;99.90;;;;;;5073487;28;20206;-82
2022/04/29 04:30:03;;;;;;;2.67;1.27;;;25.50;99.90;;;;;;5084982;28;20203;-81
2022/04/29 04:32:37;;;;;;;2.83;1.50;;;25.50;99.90;;;;;;5091694;28;20210;-81
2022/04/29 04:35:08;;;;;;;2.47;1.20;;;25.50;99.90;;;;;;5090816;28;20210;-81
2022/04/29 04:37:39;;;;;;;4.47;1.63;;;25.60;99.90;;;;;;5089087;28;20191;-81
2022/04/29 04:40:13;;;;;;;3.17;1.73;;;25.60;99.90;;;;;;5083437;28;20230;-81
2022/04/29 04:42:47;;;;;;;3.53;1.60;;;25.60;99.90;;;;;;5071297;28;20203;-81
2022/04/29 04:45:18;;;;;;;2.92;1.58;;;25.50;99.90;;;;;;5069444;28;20576;-81
2022/04/29 04:47:49;;;;;;;3.58;1.85;;;25.50;99.90;;;;;;5090216;28;20203;-82
2022/04/29 04:50:19;;;;;;;4.93;1.95;;;25.50;99.90;;;;;;5094641;28;20286;-81
2022/04/29 04:52:50;;;;;;;4.85;1.83;;;25.50;99.90;;;;;;5080885;28;20348;-81
2022/04/29 04:55:24;;;;;;;3.25;1.77;;;25.50;99.90;;;;;;5068291;28;20200;-81
2022/04/29 04:57:55;;;;;;;4.18;1.73;;;25.60;99.90;;;;;;5069135;28;20207;-81
2022/04/29 05:00:25;;;;;;;4.88;1.85;;;25.50;99.90;;;;;;5072940;28;20254;-81
2022/04/29 05:02:56;;;;;;;5.97;1.83;;;25.50;99.90;;;;;;5073096;28;20213;-81
2022/04/29 05:05:27;;;;;;;5.68;1.67;;;25.40;99.90;;;;;;5090770;28;20195;-81
2022/04/29 05:07:59;;;;;;;3.47;1.55;;;25.30;99.90;;;;;;5093429;28;20562;-81
2022/04/29 05:10:31;;;;;;;3.83;1.73;;;25.20;99.90;;;;;;5092616;28;20214;-81
2022/04/29 05:13:02;;;;;;;3.70;1.65;;;25.20;99.90;;;;;;5091372;28;20218;-82
2022/04/29 05:15:33;;;;;;;5.68;1.92;;;25.10;99.90;;;;;;5073199;28;20345;-81
2022/04/29 05:18:03;;;;;;;4.78;2.00;;;25.10;99.90;;;;;;5069973;28;20249;-81
2022/04/29 05:20:34;;;;;;;4.38;1.50;;;25.10;99.90;;;;;;5069695;28;20753;-82
2022/04/29 05:23:05;;;;;;;3.83;1.80;;;25.00;99.90;;;;;;5068768;28;20264;-81
2022/04/29 05:25:37;;;;;;;2.47;1.65;;;25.00;99.90;;;;;;5068643;28;20203;-81
2022/04/29 05:28:09;;;;;;;5.18;2.10;;;25.00;99.90;;;;;;5068887;28;20218;-81
2022/04/29 05:30:40;;;;;;;3.92;1.95;;;25.00;99.90;;;;;;5068278;28;20715;-81
2022/04/29 05:33:11;;;;;;;4.50;1.50;;;25.00;99.90;;;;;;5068845;28;20272;-82
2022/04/29 05:35:43;;;;;;;2.78;1.65;;;25.10;99.90;;;;;;5069603;28;20307;-82
2022/04/29 05:38:14;;;;;;;3.65;2.00;;;25.10;99.90;;;;;;5072721;28;20203;-82
2022/04/29 05:43:34;;;;;;;3.97;1.75;;;25.10;99.90;;;;;;5081172;28;20206;-82
2022/04/29 05:46:05;;;;;;;2.53;1.67;;;25.10;99.90;;;;;;5092272;28;20198;-82
2022/04/29 05:48:35;;;;;;;4.20;1.70;;;25.00;99.90;;;;;;5080146;28;20198;-82
2022/04/29 05:51:06;;;;;;;4.20;1.90;;;25.00;99.90;;;;;;5094818;28;20199;-82
2022/04/29 05:53:37;;;;;;;2.70;1.55;;;25.00;99.90;;;;;;5096809;28;20199;-81
2022/04/29 05:56:09;;;;;;;2.85;1.55;;;25.10;99.90;;;;;;5076860;28;20203;-82
2022/04/29 05:58:40;;;;;;;4.63;1.90;;;25.10;99.90;;;;;;5087159;28;20658;-82
2022/04/29 06:01:11;;;;;;;3.80;1.90;;;25.10;99.90;;;;;;5080417;28;20236;-82
2022/04/29 06:03:41;;;;;;;3.50;1.70;;;25.10;99.90;;;;;;5078265;28;20199;-80
2022/04/29 06:06:12;;;;;;;2.88;1.85;;;25.10;99.90;;;;;;5080757;28;20199;-81
2022/04/29 06:08:43;;;;;;;5.30;2.13;;;25.10;99.90;;;;;;5091526;28;20192;-81
2022/04/29 06:11:16;;;;;;;4.03;2.05;;;25.10;99.90;;;;;;5078666;28;20291;-81
2022/04/29 06:13:50;;;;;;;3.88;1.98;;;25.10;99.90;;;;;;5083306;28;20703;-81
2022/04/29 06:16:21;;;;;;;5.10;2.05;;;25.20;99.90;;;;;;5075964;28;20219;-81
2022/04/29 06:18:52;;;;;;;3.92;2.05;;;25.20;99.90;;;;;;5076082;28;20666;-81
2022/04/29 06:21:23;;;;;;;3.92;2.05;;;25.20;99.90;;;;;;5076345;28;20224;-81
2022/04/29 06:23:53;;;;;;;4.30;1.95;;;25.30;99.90;;;;;;5076141;28;20211;-81
2022/04/29 06:26:26;;;;;;;4.35;2.30;;;25.20;99.90;;;;;;5091613;28;20195;-81
2022/04/29 06:28:56;;;;;;;5.22;2.03;;;25.20;99.90;;;;;;5084898;28;20208;-81
2022/04/29 06:31:27;;;;;;;4.47;2.22;;;25.10;99.90;;;;;;5074604;28;20564;-81
2022/04/29 06:33:59;;;;;;;3.90;2.42;;;25.10;99.90;;;;;;5073869;28;20188;-82
2022/04/29 06:36:30;;;;;;;4.50;2.45;;;25.10;99.90;;;;;;5074305;28;20195;-82
2022/04/29 06:39:00;;;;;;;5.05;2.75;;;25.10;99.90;;;;;;5075379;28;20204;-82
2022/04/29 06:41:34;;;;;;;3.88;2.63;;;25.10;99.90;;;;;;5079632;28;20227;-82
2022/04/29 06:44:05;;;;;;;5.53;2.95;;;25.10;99.90;;;;;;5094779;28;20223;-82
2022/04/29 06:46:36;;;;;;;7.82;3.05;;;25.00;99.90;;;;;;5085025;28;20561;-82
2022/04/29 06:49:06;;;;;;;4.55;3.28;;;25.00;99.90;;;;;;5095647;28;20249;-82
2022/04/29 06:51:37;;;;;;;7.53;3.30;;;24.90;99.90;;;;;;5098439;28;20206;-82
2022/04/29 06:54:08;;;;;;;5.78;3.40;;;24.90;99.90;;;;;;5084143;28;20226;-82
2022/04/29 06:56:41;;;;;;;6.38;3.78;;;24.80;99.90;;;;;;5074595;28;20693;-82
2022/04/29 06:59:11;;;;;;;8.50;3.58;;;24.80;99.90;;;;;;5072961;28;20207;-82
2022/04/29 07:01:42;;;;;;;6.25;3.83;;;24.70;99.90;;;;;;5074162;28;20675;-82
2022/04/29 07:04:13;;;;;;;8.10;3.47;;;24.70;99.90;;;;;;5075166;28;20191;-82
2022/04/29 07:06:43;;;;;;;6.20;3.70;;;24.60;99.90;;;;;;5088197;28;20214;-81
2022/04/29 07:09:14;;;;;;;6.95;4.13;;;24.50;99.90;;;;;;5073676;28;20219;-81
2022/04/29 07:11:46;;;;;;;6.85;4.20;;;24.50;99.90;;;;;;5074599;28;20200;-81
2022/04/29 07:14:17;;;;;;;6.45;4.05;;;24.40;99.90;;;;;;5075351;28;20196;-81
2022/04/29 07:16:48;;;;;;;8.63;4.22;;;24.40;99.90;;;;;;5074947;28;20562;-81
2022/04/29 07:19:19;;;;;;;7.38;3.97;;;24.30;99.90;;;;;;5077277;28;20218;-82
2022/04/29 07:21:49;;;;;;;7.05;3.95;;;24.20;99.90;;;;;;5095214;28;20292;-82
2022/04/29 07:24:20;;;;;;;6.40;3.92;;;24.20;99.90;;;;;;5095689;28;20210;-81
2022/04/29 07:26:52;;;;;;;7.13;4.03;;;24.10;99.90;;;;;;5078464;28;20278;-82
2022/04/29 07:29:23;;;;;;;6.05;4.00;;;24.10;99.90;;;;;;5093773;28;20272;-81
2022/04/29 07:31:54;;;;;;;7.43;4.95;;;24.00;99.90;;;;;;5079503;28;20192;-82
2022/04/29 07:41:44;;;;;;;5.72;4.20;;;24.00;99.90;;;;;;5071074;28;20207;-81
2022/04/29 07:42:50;;;;;;;6.28;4.15;;;23.80;99.90;;;;;;5073957;28;20306;-81
2022/04/29 07:45:24;;;;;;;5.47;3.50;;;23.80;99.90;;;;;;5073759;28;20636;-81
2022/04/29 07:47:56;;;;;;;4.60;3.70;;;23.80;99.90;;;;;;5074375;28;20204;-81
2022/04/29 07:50:29;;;;;;;7.80;3.80;;;23.80;99.90;;;;;;5074765;27;20200;-81
2022/04/29 07:53:01;;;;;;;6.65;4.20;;;23.70;99.90;;;;;;5076152;28;20724;-81
2022/04/29 07:55:32;;;;;;;5.38;3.83;;;23.70;99.90;;;;;;5093515;28;20252;-81
2022/04/29 07:58:05;;;;;;;5.88;4.10;;;23.70;99.90;;;;;;5094303;28;20224;-82
2022/04/29 08:00:37;;;;;;;7.03;4.15;;;23.60;99.90;;;;;;5091772;28;20682;-81
2022/04/29 08:03:08;;;;;;;6.57;3.95;;;23.60;99.90;;;;;;5092100;28;20215;-82
2022/04/29 08:05:39;;;;;;;5.70;4.28;;;23.60;99.90;;;;;;5073580;28;20569;-81
2022/04/29 08:08:10;;;;;;;7.82;3.90;;;23.50;99.90;;;;;;5073418;28;20211;-82
2022/04/29 08:10:40;;;;;;;6.25;4.00;;;23.50;99.90;;;;;;5081718;28;20236;-81
2022/04/29 08:13:13;;;;;;;8.85;4.70;;;23.50;99.90;;;;;;5093489;28;20215;-82
2022/04/29 08:15:45;;;;;;;10.07;4.75;;;23.50;99.90;;;;;;5083353;28;20192;-82
2022/04/29 08:18:16;;;;;;;8.95;4.53;;;23.50;99.90;;;;;;5073003;28;20425;-82
2022/04/29 08:20:47;;;;;;;7.30;4.80;;;23.50;99.90;;;;;;5074120;28;20216;-82
2022/04/29 08:23:18;;;;;;;8.05;4.40;;;23.50;99.90;;;;;;5073822;28;20223;-82
2022/04/29 08:25:49;;;;;;;5.88;3.95;;;23.40;99.90;;;;;;5073821;28;20225;-82
2022/04/29 08:28:23;;;;;;;6.45;3.80;;;23.40;99.90;;;;;;5088480;28;20287;-82
2022/04/29 08:30:53;;;;;;;6.85;4.05;;;23.40;99.90;;;;;;5094789;28;20194;-82
2022/04/29 08:33:26;;;;;;;9.52;4.10;;;23.40;99.90;;;;;;5087535;28;20207;-82
2022/04/29 08:35:57;;;;;;;7.38;4.38;;;23.40;99.90;;;;;;5073382;28;20212;-82
2022/04/29 08:38:27;;;;;;;8.85;3.80;;;23.40;99.90;;;;;;5069641;28;20196;-82
2022/04/29 08:41:03;;;;;;;7.32;4.03;;;23.40;99.90;;;;;;5069433;28;20196;-82
2022/04/29 08:43:37;;;;;;;6.00;3.67;;;23.40;99.90;;;;;;5069615;28;20225;-82
2022/04/29 08:46:08;;;;;;;6.85;4.15;;;23.30;99.90;;;;;;5069526;28;20184;-82
2022/04/29 08:48:41;;;;;;;6.65;3.95;;;23.40;99.90;;;;;;5069546;28;20199;-82
2022/04/29 08:51:12;;;;;;;6.50;3.72;;;23.30;99.90;;;;;;5068724;28;20196;-82
2022/04/29 08:53:42;;;;;;;9.07;4.05;;;23.30;99.90;;;;;;5069421;28;20229;-82
2022/04/29 08:59:06;;;;;;;4.70;3.58;;;23.30;99.90;;;;;;5069546;28;20257;-82
2022/04/29 09:01:38;;;;;;;8.52;3.67;;;23.30;99.90;;;;;;5069427;28;20231;-82
2022/04/29 09:04:09;;;;;;;6.03;3.90;;;23.30;99.90;;;;;;5070183;28;20192;-81
2022/04/29 09:06:50;;;;;;;6.30;4.15;;;23.30;99.90;;;;;;5071258;28;20659;-82
2022/04/29 09:09:24;;;;;;;7.50;3.85;;;23.20;99.90;;;;;;5069115;28;20196;-82
2022/04/29 09:12:17;;;;;;;6.95;3.60;;;23.20;99.90;;;;;;5070263;28;20612;-82
2022/04/29 09:14:50;;;;;;;6.03;3.97;;;23.20;99.90;;;;;;5069638;28;20271;-82
2022/04/29 09:17:30;;;;;;;8.32;3.60;;;23.20;99.90;;;;;;5078203;28;20199;-82
2022/04/29 09:20:00;;;;;;;10.73;3.85;;;23.20;99.90;;;;;;5069812;28;20204;-82
2022/04/29 09:22:36;;;;;;;6.63;3.65;;;23.20;99.90;;;;;;5069151;28;20341;-82
2022/04/29 09:25:09;;;;;;;5.80;3.50;;;23.20;99.90;;;;;;5068897;28;20203;-82
2022/04/29 09:28:00;;;;;;;4.90;3.42;;;23.20;99.90;;;;;;5073480;28;20204;-82
2022/04/29 09:30:41;;;;;;;6.97;3.70;;;23.20;99.90;;;;;;5073383;28;20205;-82
2022/04/29 09:33:23;;;;;;;7.20;4.18;;;23.20;99.90;;;;;;5073282;28;20611;-82
2022/04/29 09:35:54;;;;;;;5.93;3.90;;;23.20;99.90;;;;;;5074081;28;20204;-82
2022/04/29 09:41:22;;;;;;;6.70;3.70;;;23.10;99.90;;;;;;5073084;28;20280;-82
2022/04/29 09:43:53;;;;;;;7.63;3.90;;;23.20;99.90;;;;;;5073491;28;20661;-82
2022/04/29 09:46:29;;;;;;;6.78;3.63;;;23.10;99.90;;;;;;5073440;28;20199;-82
2022/04/29 09:49:02;;;;;;;8.88;3.47;;;23.10;99.90;;;;;;5072942;28;20195;-82
2022/04/29 09:51:51;;;;;;;6.32;3.70;;;23.20;99.90;;;;;;5073075;28;20253;-82
2022/04/29 09:54:27;;;;;;;8.68;3.63;;;23.10;99.90;;;;;;5072834;28;20192;-82
2022/04/29 09:57:09;;;;;;;6.68;3.50;;;23.10;99.90;;;;;;5086984;28;20191;-82
2022/04/29 09:59:42;;;;;;;7.07;3.30;;;23.10;99.90;;;;;;5093037;28;20191;-82
2022/04/29 10:02:15;;;;;;;5.43;3.42;;;23.10;99.90;;;;;;5082466;28;20240;-82
2022/04/29 10:04:47;;;;;;;6.95;3.15;;;23.10;99.90;;;;;;5072438;28;20200;-82
2022/04/29 10:07:19;;;;;;;5.25;3.45;;;23.10;99.90;;;;;;5072288;28;20609;-82
2022/04/29 10:09:50;;;;;;;5.78;3.47;;;23.10;99.90;;;;;;5082411;28;20619;-82
2022/04/29 10:12:22;;;;;;;5.72;3.65;;;23.00;99.90;;;;;;5093129;28;20202;-82
2022/04/29 10:14:59;;;;;;;5.55;3.00;;;23.00;99.90;;;;;;5092856;28;20279;-82
2022/04/29 10:23:10;;;;;;;5.10;3.20;;;23.00;99.90;;;;;;5072262;28;20253;-82
2022/04/29 10:25:44;;;;;;;4.20;2.72;;;23.00;99.90;;;;;;5073161;28;20639;-82
2022/04/29 10:28:19;;;;;;;6.40;3.17;;;23.00;99.90;;;;;;5072394;28;20200;-82
2022/04/29 10:31:00;;;;;;;6.00;3.20;;;22.90;99.90;;;;;;5072382;28;20257;-82
2022/04/29 10:33:34;;;;;;;3.95;2.83;;;22.90;99.90;;;;;;5072003;28;20666;-82
2022/04/29 10:36:10;;;;;;;5.07;3.00;;;23.00;99.90;;;;;;5075104;28;20244;-82
2022/04/29 10:38:42;;;;;;;6.95;3.03;;;22.90;99.90;;;;;;5092213;28;20207;-82
2022/04/29 10:41:14;;;;;;;5.93;3.50;;;22.90;99.90;;;;;;5091873;28;20198;-82
2022/04/29 10:44:04;;;;;;;7.72;3.40;;;22.90;99.90;;;;;;5091406;28;20223;-82
2022/04/29 10:46:39;;;;;;;6.22;3.13;;;22.90;99.90;;;;;;5092121;28;20279;-82
2022/04/29 10:49:35;;;;;;;5.60;2.97;;;22.90;99.90;;;;;;5092034;28;20195;-82
2022/04/29 10:52:05;;;;;;;3.63;3.00;;;22.90;99.90;;;;;;5074270;28;20337;-82
2022/04/29 10:54:48;;;;;;;4.65;3.30;;;22.90;99.90;;;;;;5071884;28;20196;-82
2022/04/29 10:57:19;;;;;;;5.80;2.85;;;22.90;99.90;;;;;;5071824;28;20207;-81
2022/04/29 10:59:54;;;;;;;4.90;2.90;;;22.90;99.90;;;;;;5072226;28;20568;-82
2022/04/29 11:02:29;;;;;;;4.50;2.80;;;22.90;99.90;;;;;;5071958;28;20685;-82
2022/04/29 11:05:03;;;;;;;4.47;2.60;;;22.90;99.90;;;;;;5088584;28;20293;-82
2022/04/29 11:07:52;;;;;;;3.50;2.20;;;22.90;99.90;;;;;;5091522;28;20203;-82
2022/04/29 11:10:24;;;;;;;3.95;2.20;;;22.90;99.90;;;;;;5090411;28;20719;-82
2022/04/29 11:13:00;;;;;;;4.47;2.30;;;22.80;99.90;;;;;;5092073;28;20301;-82
2022/04/29 11:15:48;;;;;;;3.95;2.30;;;22.80;99.90;;;;;;5091486;28;20195;-82
2022/04/29 11:18:27;;;;;;;4.43;2.33;;;22.90;99.90;;;;;;5090873;28;20207;-82
2022/04/29 11:24:40;;;;;;;3.30;2.17;;;22.80;99.90;;;;;;5093987;28;20219;-82
2022/04/29 11:26:47;;;;;;;4.78;2.42;;;22.80;99.90;;;;;;5075008;28;20199;-82
2022/04/29 11:29:20;;;;;;;4.72;2.30;;;22.80;99.90;;;;;;5071208;28;20192;-82
2022/04/29 11:31:50;;;;;;;4.20;2.40;;;22.80;99.90;;;;;;5072213;28;20203;-82
2022/04/29 11:34:22;;;;;;;5.20;2.38;;;22.80;99.90;;;;;;5076848;28;20195;-82
2022/04/29 11:36:59;;;;;;;3.50;2.38;;;22.80;99.90;;;;;;5091562;28;20199;-82
2022/04/29 11:39:36;;;;;;;4.95;2.50;;;22.80;99.90;;;;;;5091101;28;20313;-82
2022/04/29 11:42:08;;;;;;;4.65;2.45;;;22.80;99.90;;;;;;5091301;28;20540;-82
2022/04/29 11:44:40;;;;;;;5.47;2.50;;;22.80;99.90;;;;;;5074337;28;20861;-82
2022/04/29 11:47:11;;;;;;;6.55;2.35;;;22.80;99.90;;;;;;5069593;28;20204;-82
2022/04/29 11:49:42;;;;;;;3.10;2.20;;;22.80;99.90;;;;;;5069011;28;20207;-82
2022/04/29 11:52:26;;;;;;;4.50;2.25;;;22.80;99.90;;;;;;5071232;28;20518;-82
2022/04/29 11:54:58;;;;;;;3.97;2.10;;;22.80;99.90;;;;;;5070848;28;20203;-82
2022/04/29 11:57:30;;;;;;;5.82;2.50;;;22.80;99.90;;;;;;5070498;28;20204;-82
2022/04/29 12:00:01;;;;;;;4.75;2.47;;;22.80;99.90;;;;;;5069920;28;20199;-82
2022/04/29 12:02:33;;;;;;;3.75;2.30;;;22.80;99.90;;;;;;5070329;28;20235;-82
2022/04/29 12:05:05;;;;;;;2.70;2.10;;;22.80;99.90;;;;;;5088001;28;20191;-82
2022/04/29 12:07:44;;;;;;;2.65;2.30;;;22.80;99.90;;;;;;5090050;28;20264;-81
2022/04/29 12:10:22;;;;;;;2.90;2.00;;;22.80;99.90;;;;;;5079479;28;20210;-81
2022/04/29 12:12:56;;;;;;;4.65;2.40;;;22.80;99.90;;;;;;5081256;28;20187;-81
2022/04/29 12:15:30;;;;;;;3.45;2.03;;;22.80;99.90;;;;;;5084148;28;20624;-81
2022/04/29 12:18:02;;;;;;;3.85;2.05;;;22.80;99.90;;;;;;5069816;28;20195;-82
2022/04/29 12:20:33;;;;;;;3.85;2.13;;;22.80;99.90;;;;;;5069766;28;20299;-81
2022/04/29 12:23:15;;;;;;;2.72;2.20;;;22.80;99.90;;;;;;5069722;28;20228;-82
2022/04/29 12:25:46;;;;;;;2.50;2.13;;;22.80;99.90;;;;;;5070403;28;20286;-81
2022/04/29 12:28:20;;;;;;;2.88;2.28;;;22.80;99.90;;;;;;5069914;28;20266;-81
2022/04/29 12:36:53;;;;;;;4.30;2.70;;;22.80;99.90;;;;;;5069659;28;20242;-81
2022/04/29 12:39:27;;;;;;;4.47;2.30;;;22.70;99.90;;;;;;5070132;28;20199;-82
2022/04/29 12:42:03;;;;;;;3.38;2.40;;;22.70;99.90;;;;;;5070592;28;20203;-81
2022/04/29 12:45:06;;;;;;;4.97;2.38;;;22.70;99.90;;;;;;5069514;28;20249;-82
2022/04/29 12:47:39;;;;;;;3.25;2.40;;;22.70;99.90;;;;;;5069744;28;20627;-81
2022/04/29 12:50:26;;;;;;;3.58;2.10;;;22.70;99.90;;;;;;5068549;28;20680;-82
2022/04/29 12:53:00;;;;;;;2.65;2.00;;;22.70;99.90;;;;;;5069694;28;20256;-81
2022/04/29 12:55:35;;;;;;;4.43;2.40;;;22.70;99.90;;;;;;5069505;28;20550;-81
2022/04/29 12:58:10;;;;;;;4.70;2.40;;;22.70;99.90;;;;;;5069467;28;20268;-82
2022/04/29 13:00:43;;;;;;;3.42;2.20;;;22.70;99.90;;;;;;5086208;28;20203;-82
2022/04/29 13:03:21;;;;;;;3.65;2.20;;;22.70;99.90;;;;;;5086697;28;20581;-81
2022/04/29 13:05:52;;;;;;;2.83;2.30;;;22.70;99.90;;;;;;5068412;28;20293;-81
2022/04/29 13:08:23;;;;;;;2.55;2.17;;;22.70;99.90;;;;;;5069069;28;20566;-81
2022/04/29 13:10:56;;;;;;;3.13;2.17;;;22.70;99.90;;;;;;5071497;28;20639;-82
2022/04/29 13:13:28;;;;;;;3.28;2.40;;;22.70;99.90;;;;;;5089811;28;20535;-82
2022/04/29 13:15:59;;;;;;;3.42;2.20;;;22.70;99.90;;;;;;5086079;28;20659;-82
2022/04/29 13:18:31;;;;;;;2.83;2.05;;;22.70;99.90;;;;;;5069321;28;20566;-81
2022/04/29 13:21:06;;;;;;;2.47;2.08;;;22.70;99.90;;;;;;5068969;28;20220;-82
2022/04/29 13:23:38;;;;;;;3.30;2.15;;;22.70;99.90;;;;;;5068217;28;20223;-81
2022/04/29 13:26:11;;;;;;;4.20;2.35;;;22.70;99.90;;;;;;5069059;28;20278;-82
2022/04/29 13:28:43;;;;;;;2.83;2.38;;;22.70;99.90;;;;;;5069031;28;20223;-82
2022/04/29 13:31:14;;;;;;;3.72;2.30;;;22.70;99.90;;;;;;5069136;28;20566;-82
2022/04/29 13:33:44;;;;;;;3.25;2.17;;;22.70;99.90;;;;;;5071132;28;20261;-81
2022/04/29 13:36:16;;;;;;;5.63;2.55;;;22.70;99.90;;;;;;5068895;28;20199;-82
2022/04/29 13:38:46;;;;;;;4.05;2.17;;;22.60;99.90;;;;;;5068180;28;20206;-81
2022/04/29 13:41:19;;;;;;;3.25;1.90;;;22.60;99.90;;;;;;5068796;28;20200;-82
2022/04/29 13:43:50;;;;;;;2.67;2.00;;;22.70;99.90;;;;;;5068747;28;20380;-82
2022/04/29 13:46:21;;;;;;;2.67;2.13;;;22.70;99.90;;;;;;5068480;28;20242;-82